Time;durP1;ratioP1;P1;durP2;ratioP2;P2;SDS_P1;SDS_P2;PMS_P1;PMS_P2;Temp;Humidity;BMP_temperature;BMP_pressure;BME280_temperature;BME280_humidity;BME280_pressure;Samples;Min_cycle;Max_cycle;Signal;HPM_P1;HPM_P2
2022/01/01 00:00:14;;;;;;;72.70;56.60;;;10.60;99.90;;;;;;5076851;28;20499;-62
2022/01/01 00:02:42;;;;;;;53.17;43.33;;;10.70;99.90;;;;;;5076794;28;20471;-62
2022/01/01 00:05:14;;;;;;;53.13;38.90;;;10.70;99.90;;;;;;5076412;28;20961;-62
2022/01/01 00:07:44;;;;;;;41.77;31.60;;;10.70;99.90;;;;;;5076724;28;20451;-62
2022/01/01 00:10:11;;;;;;;31.63;24.30;;;10.60;99.90;;;;;;5076595;28;20500;-62
2022/01/01 00:12:41;;;;;;;25.80;19.10;;;10.70;99.90;;;;;;5076236;28;20487;-62
2022/01/01 00:15:08;;;;;;;29.03;21.47;;;10.80;99.90;;;;;;5076437;28;20444;-62
2022/01/01 00:17:37;;;;;;;45.27;26.30;;;10.90;99.90;;;;;;5076636;28;20490;-62
2022/01/01 00:20:05;;;;;;;22.60;15.40;;;11.00;99.90;;;;;;5076253;28;20484;-63
2022/01/01 00:22:32;;;;;;;18.00;13.63;;;11.10;99.90;;;;;;5076438;28;20575;-62
2022/01/01 00:24:59;;;;;;;14.43;11.80;;;11.20;99.90;;;;;;5076442;28;20860;-63
2022/01/01 00:27:27;;;;;;;14.03;11.10;;;11.20;99.90;;;;;;5076519;28;20444;-63
2022/01/01 00:29:54;;;;;;;13.47;10.23;;;11.30;99.90;;;;;;5076131;28;20487;-62
2022/01/01 00:32:21;;;;;;;16.77;10.63;;;11.40;99.90;;;;;;5075763;28;20444;-62
2022/01/01 00:34:50;;;;;;;11.27;9.63;;;11.60;99.90;;;;;;5075856;28;20452;-63
2022/01/01 00:37:18;;;;;;;14.67;10.30;;;11.70;99.90;;;;;;5076383;28;20550;-63
2022/01/01 00:39:45;;;;;;;12.53;9.87;;;11.60;99.90;;;;;;5075845;28;20451;-63
2022/01/01 00:42:13;;;;;;;10.27;8.93;;;11.60;99.90;;;;;;5075991;28;20482;-63
2022/01/01 00:44:40;;;;;;;11.80;9.40;;;11.60;99.90;;;;;;5075815;28;20594;-63
2022/01/01 00:47:07;;;;;;;17.97;12.20;;;11.60;99.90;;;;;;5075559;28;20452;-63
2022/01/01 00:49:35;;;;;;;14.23;11.07;;;11.70;99.90;;;;;;5075957;28;20472;-63
2022/01/01 00:52:04;;;;;;;17.43;10.13;;;11.80;99.90;;;;;;5075420;28;20468;-63
2022/01/01 00:54:31;;;;;;;10.77;9.33;;;11.70;99.90;;;;;;5074772;28;20449;-63
2022/01/01 00:56:58;;;;;;;13.10;10.07;;;11.70;99.90;;;;;;5075609;28;20454;-62
2022/01/01 00:59:28;;;;;;;13.23;10.63;;;11.70;99.90;;;;;;5075735;28;20446;-62
2022/01/01 01:01:55;;;;;;;10.37;9.37;;;11.70;99.90;;;;;;5075548;28;20475;-62
2022/01/01 01:04:22;;;;;;;11.50;9.70;;;11.70;99.90;;;;;;5075717;28;20444;-61
2022/01/01 01:06:49;;;;;;;13.60;10.60;;;11.70;99.90;;;;;;5075685;28;20935;-63
2022/01/01 01:09:18;;;;;;;14.10;10.37;;;11.60;99.90;;;;;;5075262;28;20449;-62
2022/01/01 01:11:47;;;;;;;15.03;10.30;;;11.70;99.90;;;;;;5075670;28;20467;-62
2022/01/01 01:14:21;;;;;;;14.20;11.10;;;11.70;99.90;;;;;;5075252;28;20452;-62
2022/01/01 01:16:49;;;;;;;13.83;10.47;;;11.60;99.90;;;;;;5075061;28;20903;-62
2022/01/01 01:19:16;;;;;;;14.67;10.37;;;11.50;99.90;;;;;;5075324;28;20452;-63
2022/01/01 01:21:45;;;;;;;11.17;10.07;;;11.50;99.90;;;;;;5075074;28;20551;-63
2022/01/01 01:24:13;;;;;;;14.53;11.60;;;11.40;99.90;;;;;;5074911;28;20480;-63
2022/01/01 01:26:48;;;;;;;14.47;10.37;;;11.50;99.90;;;;;;5075453;28;20480;-63
2022/01/01 01:29:16;;;;;;;13.40;11.30;;;11.40;99.90;;;;;;5075149;28;20519;-63
2022/01/01 01:31:43;;;;;;;15.17;10.90;;;11.40;99.90;;;;;;5075033;28;20555;-62
2022/01/01 01:34:10;;;;;;;14.90;10.93;;;11.50;99.90;;;;;;5075190;28;20436;-63
2022/01/01 01:36:38;;;;;;;13.00;10.73;;;11.50;99.90;;;;;;5075111;28;20460;-63
2022/01/01 01:39:05;;;;;;;13.50;10.77;;;11.50;99.90;;;;;;5075054;28;20564;-63
2022/01/01 01:41:32;;;;;;;11.13;10.03;;;11.60;99.90;;;;;;5075024;28;20474;-62
2022/01/01 01:44:02;;;;;;;13.40;10.53;;;11.40;99.90;;;;;;5074774;28;20480;-62
2022/01/01 01:46:29;;;;;;;13.17;10.47;;;11.40;99.90;;;;;;5074927;28;20523;-62
2022/01/01 01:48:57;;;;;;;14.83;11.80;;;11.40;99.90;;;;;;5074709;28;20846;-61
2022/01/01 01:51:24;;;;;;;15.10;12.23;;;11.50;99.90;;;;;;5074718;28;20887;-63
2022/01/01 01:53:52;;;;;;;14.40;12.10;;;11.50;99.90;;;;;;5074719;28;20524;-63
2022/01/01 01:56:19;;;;;;;14.33;11.30;;;11.60;99.90;;;;;;5074341;28;20539;-62
2022/01/01 01:58:47;;;;;;;16.40;12.97;;;11.60;99.90;;;;;;5074591;28;20482;-62
2022/01/01 02:01:23;;;;;;;17.20;11.17;;;11.50;99.90;;;;;;5074083;28;20478;-62
2022/01/01 02:03:51;;;;;;;13.93;11.43;;;11.40;99.90;;;;;;5074255;28;20958;-62
2022/01/01 02:06:20;;;;;;;19.63;14.03;;;11.40;99.90;;;;;;5074075;28;20492;-62
2022/01/01 02:08:49;;;;;;;137.63;69.60;;;11.40;99.90;;;;;;5073993;28;20452;-62
2022/01/01 02:11:19;;;;;;;137.07;73.27;;;11.40;99.90;;;;;;5074299;28;20468;-62
2022/01/01 02:14:13;;;;;;;71.03;42.03;;;11.50;99.90;;;;;;5073967;28;20847;-62
2022/01/01 02:19:48;;;;;;;23.13;17.70;;;11.40;99.90;;;;;;5063543;28;20429;-62
2022/01/01 02:22:17;;;;;;;32.90;23.00;;;11.50;99.90;;;;;;5074189;28;20459;-62
2022/01/01 02:24:44;;;;;;;22.50;18.60;;;11.50;99.90;;;;;;5073893;28;20875;-62
2022/01/01 02:27:11;;;;;;;26.00;19.93;;;11.50;99.90;;;;;;5074110;28;20451;-62
2022/01/01 02:29:39;;;;;;;27.40;20.60;;;11.50;99.90;;;;;;5073640;28;20450;-62
2022/01/01 02:32:10;;;;;;;22.03;18.10;;;11.50;99.90;;;;;;5073941;28;20465;-63
2022/01/01 02:34:37;;;;;;;19.77;17.63;;;11.30;99.90;;;;;;5073838;28;20445;-62
2022/01/01 02:37:04;;;;;;;21.57;16.80;;;11.30;99.90;;;;;;5073829;28;20554;-63
2022/01/01 02:39:33;;;;;;;17.40;13.17;;;11.30;99.90;;;;;;5073902;28;20451;-63
2022/01/01 02:42:00;;;;;;;18.70;14.50;;;11.30;99.90;;;;;;5073690;28;20826;-63
2022/01/01 02:44:28;;;;;;;18.30;12.07;;;11.30;99.90;;;;;;5073617;28;20484;-62
2022/01/01 02:46:56;;;;;;;14.97;13.00;;;11.20;99.90;;;;;;5073785;28;20480;-62
2022/01/01 02:49:24;;;;;;;17.90;12.70;;;11.30;99.90;;;;;;5073307;28;20452;-61
2022/01/01 02:51:52;;;;;;;13.70;12.30;;;11.20;99.90;;;;;;5073172;28;20966;-61
2022/01/01 02:54:19;;;;;;;19.47;12.47;;;11.30;99.90;;;;;;5073744;28;20550;-61
2022/01/01 02:56:48;;;;;;;14.47;11.07;;;11.30;99.90;;;;;;5073557;28;20444;-63
2022/01/01 02:59:16;;;;;;;14.63;12.13;;;11.40;99.90;;;;;;5073584;28;20463;-63
2022/01/01 03:01:43;;;;;;;17.17;13.60;;;11.50;99.90;;;;;;5073558;28;20893;-63
2022/01/01 03:04:10;;;;;;;18.60;13.43;;;11.50;99.90;;;;;;5073464;28;20551;-63
2022/01/01 03:06:37;;;;;;;16.47;12.63;;;11.40;99.90;;;;;;5073358;28;20436;-63
2022/01/01 03:09:04;;;;;;;16.73;13.87;;;11.30;99.90;;;;;;5073377;28;20486;-63
2022/01/01 03:11:32;;;;;;;14.70;12.47;;;11.20;99.90;;;;;;5073433;28;20504;-63
2022/01/01 03:14:00;;;;;;;17.97;14.70;;;11.30;99.90;;;;;;5072936;28;20478;-62
2022/01/01 03:16:27;;;;;;;21.10;13.37;;;11.40;99.90;;;;;;5072988;28;20931;-63
2022/01/01 03:18:55;;;;;;;17.87;13.70;;;11.50;99.90;;;;;;5072689;28;20449;-63
2022/01/01 03:21:22;;;;;;;16.57;12.40;;;11.50;99.90;;;;;;5072943;28;20518;-63
2022/01/01 03:23:49;;;;;;;16.37;12.57;;;11.40;99.90;;;;;;5073182;28;20910;-63
2022/01/01 03:26:16;;;;;;;14.03;10.97;;;11.40;99.90;;;;;;5073134;28;20531;-63
2022/01/01 03:28:43;;;;;;;15.73;11.67;;;11.50;99.90;;;;;;5073416;28;20444;-63
2022/01/01 03:31:11;;;;;;;15.30;11.77;;;11.60;99.90;;;;;;5073416;28;20461;-63
2022/01/01 03:33:39;;;;;;;13.40;11.43;;;11.50;99.90;;;;;;5073387;28;20459;-63
2022/01/01 03:36:06;;;;;;;13.60;12.13;;;11.50;99.90;;;;;;5073178;28;20456;-63
2022/01/01 03:38:34;;;;;;;14.97;12.33;;;11.50;99.90;;;;;;5072852;28;20540;-63
2022/01/01 03:41:01;;;;;;;13.47;10.23;;;11.40;99.90;;;;;;5073173;28;20567;-63
2022/01/01 03:43:29;;;;;;;14.23;10.60;;;11.40;99.90;;;;;;5072902;28;20487;-63
2022/01/01 03:45:56;;;;;;;11.90;10.20;;;11.60;99.90;;;;;;5072704;28;20955;-63
2022/01/01 03:48:24;;;;;;;15.30;10.97;;;11.70;99.90;;;;;;5073094;28;20437;-62
2022/01/01 03:50:52;;;;;;;15.17;12.47;;;11.60;99.90;;;;;;5072747;28;20472;-61
2022/01/01 03:53:19;;;;;;;13.03;11.63;;;11.70;99.90;;;;;;5072738;28;20449;-61
2022/01/01 03:55:46;;;;;;;17.90;12.60;;;11.60;99.90;;;;;;5072871;28;20448;-62
2022/01/01 03:58:13;;;;;;;14.87;12.40;;;11.40;99.90;;;;;;5073196;28;20450;-62
2022/01/01 04:00:40;;;;;;;17.77;13.13;;;11.50;99.90;;;;;;5072875;28;20464;-62
2022/01/01 04:03:12;;;;;;;15.67;13.23;;;11.60;99.90;;;;;;5073093;28;20483;-62
2022/01/01 04:05:41;;;;;;;16.60;13.50;;;11.60;99.90;;;;;;5072893;28;20443;-62
2022/01/01 04:08:09;;;;;;;20.67;13.57;;;11.50;99.90;;;;;;5072950;28;20428;-62
2022/01/01 04:10:37;;;;;;;15.97;13.33;;;11.40;99.90;;;;;;5072862;28;20551;-62
2022/01/01 04:13:06;;;;;;;16.73;12.53;;;11.40;99.90;;;;;;5072426;28;20479;-63
2022/01/01 04:15:34;;;;;;;21.50;12.83;;;11.50;99.90;;;;;;5072724;28;20448;-63
2022/01/01 04:18:06;;;;;;;14.40;12.90;;;11.60;99.90;;;;;;5072785;28;20455;-62
2022/01/01 04:20:33;;;;;;;13.00;10.87;;;11.60;99.90;;;;;;5072419;28;20589;-62
2022/01/01 04:23:02;;;;;;;14.00;11.27;;;11.60;99.90;;;;;;5072949;28;20452;-63
2022/01/01 04:25:29;;;;;;;13.40;11.10;;;11.60;99.90;;;;;;5072306;28;20818;-63
2022/01/01 04:27:57;;;;;;;16.50;11.23;;;11.70;99.90;;;;;;5072589;28;20474;-63
2022/01/01 04:30:25;;;;;;;15.80;10.90;;;11.70;99.90;;;;;;5074062;28;20478;-62
2022/01/01 04:32:52;;;;;;;15.40;11.63;;;11.70;99.90;;;;;;5076146;28;20870;-62
2022/01/01 04:35:19;;;;;;;16.13;11.40;;;11.60;99.90;;;;;;5076085;28;20475;-63
2022/01/01 04:37:47;;;;;;;11.63;10.43;;;11.60;99.90;;;;;;5076310;28;20448;-62
2022/01/01 04:40:15;;;;;;;11.83;9.47;;;11.60;99.90;;;;;;5076024;28;20472;-62
2022/01/01 04:42:43;;;;;;;13.93;10.47;;;11.60;99.90;;;;;;5076176;28;20459;-62
2022/01/01 04:45:11;;;;;;;12.43;9.63;;;11.60;99.90;;;;;;5076056;28;20575;-62
2022/01/01 04:47:38;;;;;;;15.10;10.53;;;11.50;99.90;;;;;;5075980;28;20448;-62
2022/01/01 04:50:06;;;;;;;12.50;11.20;;;11.60;99.90;;;;;;5075885;28;20832;-62
2022/01/01 04:52:34;;;;;;;13.13;9.60;;;11.50;99.90;;;;;;5075982;28;20445;-62
2022/01/01 04:55:01;;;;;;;12.67;10.60;;;11.40;99.90;;;;;;5075653;28;20440;-63
2022/01/01 04:57:30;;;;;;;11.17;10.03;;;11.40;99.90;;;;;;5075675;28;20440;-63
2022/01/01 04:59:58;;;;;;;11.53;10.33;;;11.40;99.90;;;;;;5076059;28;20531;-63
2022/01/01 05:02:26;;;;;;;13.57;10.90;;;11.40;99.90;;;;;;5075798;28;20444;-63
2022/01/01 05:04:54;;;;;;;11.90;9.70;;;11.10;99.90;;;;;;5075640;28;20483;-63
2022/01/01 05:07:21;;;;;;;16.20;11.80;;;;;;;;;;5075755;28;20853;-62
2022/01/01 05:09:48;;;;;;;14.73;11.13;;;10.90;99.90;;;;;;5075754;28;20456;-63
2022/01/01 05:12:15;;;;;;;12.53;9.60;;;10.90;99.90;;;;;;5075076;28;20483;-62
2022/01/01 05:14:44;;;;;;;14.90;11.03;;;10.90;99.90;;;;;;5075514;28;20443;-63
2022/01/01 05:17:12;;;;;;;12.13;10.90;;;10.70;99.90;;;;;;5075201;28;20458;-63
2022/01/01 05:19:39;;;;;;;14.47;9.90;;;10.60;99.90;;;;;;5075087;28;20452;-62
2022/01/01 05:22:06;;;;;;;12.83;9.63;;;10.50;99.90;;;;;;5075152;28;20978;-63
2022/01/01 05:24:34;;;;;;;17.30;9.57;;;10.50;99.90;;;;;;5075381;28;20472;-63
2022/01/01 05:27:01;;;;;;;13.73;10.20;;;10.60;99.90;;;;;;5074771;28;20541;-63
2022/01/01 05:29:28;;;;;;;10.90;9.37;;;10.60;99.90;;;;;;5075137;28;20428;-63
2022/01/01 05:31:56;;;;;;;10.03;8.63;;;10.50;99.90;;;;;;5075004;28;20468;-62
2022/01/01 05:34:23;;;;;;;9.03;8.13;;;10.40;99.90;;;;;;5074859;28;20436;-62
2022/01/01 05:36:51;;;;;;;12.23;9.07;;;10.20;99.90;;;;;;5075180;28;20813;-62
2022/01/01 05:39:18;;;;;;;8.70;7.90;;;10.30;99.90;;;;;;5075128;28;20448;-63
2022/01/01 05:41:45;;;;;;;7.83;7.03;;;10.40;99.90;;;;;;5074560;28;20542;-63
2022/01/01 05:44:12;;;;;;;10.50;7.73;;;10.20;99.90;;;;;;5074642;28;21015;-63
2022/01/01 05:46:39;;;;;;;11.40;8.63;;;10.10;99.90;;;;;;5074960;28;20761;-63
2022/01/01 05:49:08;;;;;;;10.03;7.47;;;10.20;99.90;;;;;;5074807;28;20448;-62
2022/01/01 05:51:35;;;;;;;8.70;7.43;;;10.10;99.90;;;;;;5074428;28;20842;-62
2022/01/01 05:54:02;;;;;;;10.17;7.90;;;10.00;99.90;;;;;;5074435;28;20977;-62
2022/01/01 05:56:29;;;;;;;9.57;6.90;;;10.00;99.90;;;;;;5074891;28;20465;-62
2022/01/01 05:58:57;;;;;;;9.43;6.63;;;10.10;99.90;;;;;;5074392;28;20428;-62
2022/01/01 06:01:24;;;;;;;8.50;6.63;;;10.00;99.90;;;;;;5074140;28;20975;-62
2022/01/01 06:03:51;;;;;;;10.10;7.43;;;10.10;99.90;;;;;;5074354;28;20863;-62
2022/01/01 06:06:19;;;;;;;10.80;6.27;;;10.10;99.90;;;;;;5074348;28;20452;-62
2022/01/01 06:08:46;;;;;;;9.33;6.13;;;10.00;99.90;;;;;;5074082;28;20454;-62
2022/01/01 06:11:13;;;;;;;10.37;6.80;;;10.10;99.90;;;;;;5074412;28;20887;-62
2022/01/01 06:13:41;;;;;;;8.90;6.90;;;10.00;99.90;;;;;;5073813;28;20472;-62
2022/01/01 06:16:08;;;;;;;7.37;5.80;;;10.10;99.90;;;;;;5074170;28;20456;-62
2022/01/01 06:18:35;;;;;;;7.73;5.83;;;10.20;99.90;;;;;;5074053;28;20451;-62
2022/01/01 06:21:04;;;;;;;6.43;4.73;;;10.20;99.90;;;;;;5074129;28;20490;-63
2022/01/01 06:23:36;;;;;;;7.10;5.07;;;10.30;99.90;;;;;;5073729;28;20448;-63
2022/01/01 06:26:03;;;;;;;5.23;4.60;;;10.40;99.90;;;;;;5074259;28;20433;-63
2022/01/01 06:28:31;;;;;;;5.20;4.63;;;10.40;99.90;;;;;;5074095;28;20451;-62
2022/01/01 06:30:58;;;;;;;5.87;4.87;;;10.50;99.90;;;;;;5073929;28;20518;-62
2022/01/01 06:33:25;;;;;;;6.43;4.43;;;10.60;99.90;;;;;;5073912;28;20522;-62
2022/01/01 06:35:52;;;;;;;7.53;4.97;;;10.60;99.90;;;;;;5073993;28;20453;-63
2022/01/01 06:38:19;;;;;;;6.97;5.00;;;10.70;99.90;;;;;;5073963;28;20783;-63
2022/01/01 06:40:48;;;;;;;5.23;4.73;;;10.80;99.90;;;;;;5074048;28;20470;-63
2022/01/01 06:43:16;;;;;;;8.20;4.60;;;10.90;99.90;;;;;;5073932;28;20448;-63
2022/01/01 06:45:44;;;;;;;5.60;4.70;;;10.90;99.90;;;;;;5073594;28;20491;-63
2022/01/01 06:48:11;;;;;;;9.30;4.93;;;10.90;99.90;;;;;;5073671;28;20448;-63
2022/01/01 06:50:38;;;;;;;6.47;5.80;;;10.90;99.90;;;;;;5073971;28;20559;-63
2022/01/01 06:53:05;;;;;;;6.37;4.97;;;10.80;99.90;;;;;;5072982;28;20460;-63
2022/01/01 06:55:32;;;;;;;4.50;4.10;;;10.90;99.90;;;;;;5073329;28;20954;-63
2022/01/01 06:58:01;;;;;;;7.33;4.90;;;10.90;99.90;;;;;;5073507;28;20931;-63
2022/01/01 07:00:28;;;;;;;5.60;5.00;;;11.00;99.90;;;;;;5073146;28;20479;-63
2022/01/01 07:02:55;;;;;;;5.53;4.50;;;11.00;99.90;;;;;;5073548;28;20781;-63
2022/01/01 07:05:22;;;;;;;5.20;4.60;;;11.00;99.90;;;;;;5073196;28;20480;-63
2022/01/01 07:07:49;;;;;;;4.97;4.23;;;11.00;99.90;;;;;;5073735;28;20821;-63
2022/01/01 07:10:16;;;;;;;6.73;4.27;;;11.10;99.90;;;;;;5073529;28;20503;-63
2022/01/01 07:12:43;;;;;;;5.70;4.73;;;11.00;99.90;;;;;;5073410;28;20482;-63
2022/01/01 07:15:15;;;;;;;6.00;4.30;;;10.90;99.90;;;;;;5073105;28;20447;-63
2022/01/01 07:17:42;;;;;;;5.43;4.67;;;10.80;99.90;;;;;;5073387;28;20500;-63
2022/01/01 07:20:11;;;;;;;4.70;4.30;;;10.80;99.90;;;;;;5073142;28;20475;-63
2022/01/01 07:22:41;;;;;;;5.23;4.67;;;10.80;99.90;;;;;;5073203;28;20957;-63
2022/01/01 07:25:10;;;;;;;5.67;4.23;;;10.90;99.90;;;;;;5073130;28;20494;-63
2022/01/01 07:27:38;;;;;;;5.67;5.17;;;11.00;99.90;;;;;;5073309;28;20435;-62
2022/01/01 07:30:06;;;;;;;6.20;5.10;;;10.90;99.90;;;;;;5073090;28;20452;-62
2022/01/01 07:32:39;;;;;;;6.53;4.73;;;10.90;99.90;;;;;;5073363;28;20452;-61
2022/01/01 07:35:07;;;;;;;4.80;4.20;;;10.80;99.90;;;;;;5073436;28;20425;-63
2022/01/01 07:37:34;;;;;;;4.80;4.30;;;10.80;99.90;;;;;;5073427;28;20463;-62
2022/01/01 07:40:01;;;;;;;4.90;4.20;;;10.80;99.90;;;;;;5073232;28;20543;-62
2022/01/01 07:42:28;;;;;;;5.43;4.90;;;10.90;99.90;;;;;;5073324;28;20479;-62
2022/01/01 07:44:56;;;;;;;5.60;4.50;;;11.00;99.90;;;;;;5073134;28;20483;-62
2022/01/01 07:47:23;;;;;;;5.03;4.00;;;11.10;99.90;;;;;;5072796;28;20531;-62
2022/01/01 07:49:51;;;;;;;5.40;4.50;;;11.10;99.90;;;;;;5072781;28;20445;-62
2022/01/01 07:52:18;;;;;;;6.67;5.20;;;11.10;99.90;;;;;;5072839;28;20449;-62
2022/01/01 07:54:46;;;;;;;4.93;4.43;;;11.20;99.90;;;;;;5072816;28;20534;-62
2022/01/01 07:57:13;;;;;;;9.73;4.70;;;11.00;99.90;;;;;;5073178;28;20452;-62
2022/01/01 07:59:40;;;;;;;5.20;4.70;;;11.10;99.90;;;;;;5072942;28;20452;-62
2022/01/01 08:02:07;;;;;;;6.27;4.43;;;11.20;99.90;;;;;;5072831;28;20472;-62
2022/01/01 08:04:34;;;;;;;6.20;5.00;;;11.10;99.90;;;;;;5075130;28;20484;-63
2022/01/01 08:07:03;;;;;;;6.87;4.57;;;11.30;99.90;;;;;;5076940;28;20780;-63
2022/01/01 08:09:30;;;;;;;4.90;4.40;;;11.20;99.90;;;;;;5076522;28;20931;-63
2022/01/01 08:11:57;;;;;;;4.40;3.83;;;11.20;99.90;;;;;;5076142;28;20966;-62
2022/01/01 08:14:25;;;;;;;5.13;4.63;;;11.30;99.90;;;;;;5076611;28;20505;-62
2022/01/01 08:16:59;;;;;;;4.87;4.20;;;11.30;99.90;;;;;;5076382;28;20542;-62
2022/01/01 08:19:26;;;;;;;5.60;4.30;;;11.30;99.90;;;;;;5076491;28;20527;-62
2022/01/01 08:21:54;;;;;;;4.53;4.13;;;11.30;99.90;;;;;;5076443;28;20498;-62
2022/01/01 08:24:23;;;;;;;5.63;3.93;;;11.40;99.90;;;;;;5076499;28;20462;-62
2022/01/01 08:26:51;;;;;;;6.50;4.77;;;11.40;99.90;;;;;;5076468;28;20443;-62
2022/01/01 08:29:18;;;;;;;6.07;4.37;;;11.30;99.90;;;;;;5076337;28;20820;-62
2022/01/01 08:31:45;;;;;;;4.60;4.20;;;11.40;99.90;;;;;;5076100;28;20460;-62
2022/01/01 08:34:12;;;;;;;4.83;4.30;;;11.40;99.90;;;;;;5076050;28;20453;-62
2022/01/01 08:36:39;;;;;;;4.93;4.20;;;11.50;99.90;;;;;;5076152;28;20456;-62
2022/01/01 08:39:08;;;;;;;4.13;3.83;;;11.60;99.90;;;;;;5075950;28;20447;-63
2022/01/01 08:41:37;;;;;;;4.90;4.50;;;11.60;99.90;;;;;;5076061;28;20472;-63
2022/01/01 08:44:04;;;;;;;5.43;4.87;;;11.70;99.90;;;;;;5076075;28;20452;-63
2022/01/01 08:46:32;;;;;;;5.90;4.30;;;11.70;99.90;;;;;;5075759;28;20480;-63
2022/01/01 08:49:00;;;;;;;6.87;4.60;;;11.70;99.90;;;;;;5075878;28;20927;-63
2022/01/01 08:51:28;;;;;;;5.40;4.37;;;11.70;99.90;;;;;;5075856;28;20938;-63
2022/01/01 08:53:56;;;;;;;6.10;4.30;;;11.70;99.90;;;;;;5075653;28;20460;-62
2022/01/01 08:56:23;;;;;;;4.77;4.00;;;11.70;99.90;;;;;;5075643;28;20480;-63
2022/01/01 08:58:52;;;;;;;4.43;4.03;;;11.80;99.90;;;;;;5075499;28;20448;-63
2022/01/01 09:01:20;;;;;;;5.83;4.57;;;11.80;99.90;;;;;;5075618;28;20465;-63
2022/01/01 09:03:47;;;;;;;5.00;4.47;;;11.80;99.90;;;;;;5076012;28;20448;-63
2022/01/01 09:06:14;;;;;;;4.73;4.10;;;11.80;99.90;;;;;;5075776;28;20567;-63
2022/01/01 09:08:43;;;;;;;5.70;4.33;;;11.80;99.90;;;;;;5075440;28;20924;-63
2022/01/01 09:11:13;;;;;;;5.87;4.90;;;11.80;99.90;;;;;;5075599;28;20558;-63
2022/01/01 09:13:42;;;;;;;5.80;4.20;;;11.80;99.90;;;;;;5074024;28;20472;-63
2022/01/01 09:16:12;;;;;;;4.63;4.23;;;11.70;99.90;;;;;;5074513;28;20950;-63
2022/01/01 09:18:39;;;;;;;5.73;3.97;;;11.60;99.90;;;;;;5075309;28;20486;-63
2022/01/01 09:21:07;;;;;;;4.87;4.30;;;11.70;99.90;;;;;;5075484;28;20475;-63
2022/01/01 09:23:35;;;;;;;4.50;3.40;;;11.70;99.90;;;;;;5075469;28;20807;-63
2022/01/01 09:26:02;;;;;;;4.03;3.63;;;11.70;99.90;;;;;;5074898;28;20484;-63
2022/01/01 09:28:29;;;;;;;6.77;3.70;;;11.80;99.90;;;;;;5074863;28;20484;-63
2022/01/01 09:30:56;;;;;;;4.30;3.90;;;12.00;99.90;;;;;;5075036;28;20555;-65
2022/01/01 09:33:29;;;;;;;4.20;3.60;;;12.00;99.90;;;;;;5074901;28;20452;-63
2022/01/01 09:35:56;;;;;;;4.90;4.37;;;12.20;99.90;;;;;;5075135;28;20543;-63
2022/01/01 09:38:24;;;;;;;6.40;3.50;;;12.20;99.90;;;;;;5074676;28;20459;-63
2022/01/01 09:40:54;;;;;;;3.73;3.40;;;12.30;99.90;;;;;;5074903;28;20470;-62
2022/01/01 09:43:22;;;;;;;4.30;3.40;;;12.50;99.90;;;;;;5075154;28;20436;-63
2022/01/01 09:45:50;;;;;;;3.70;3.10;;;12.50;99.90;;;;;;5074706;28;20486;-63
2022/01/01 09:48:20;;;;;;;6.57;4.30;;;12.60;99.90;;;;;;5074597;28;20535;-63
2022/01/01 09:50:50;;;;;;;4.67;3.70;;;12.70;99.90;;;;;;5074887;28;20468;-62
2022/01/01 09:53:18;;;;;;;4.30;3.90;;;12.80;99.90;;;;;;5074936;28;20448;-63
2022/01/01 09:55:45;;;;;;;4.00;3.57;;;12.90;99.90;;;;;;5074514;28;21013;-63
2022/01/01 09:58:13;;;;;;;5.37;3.73;;;12.90;99.90;;;;;;5074685;28;20448;-63
2022/01/01 10:00:40;;;;;;;4.00;3.50;;;12.90;99.90;;;;;;5074521;28;20471;-63
2022/01/01 10:03:12;;;;;;;3.87;3.47;;;12.70;99.90;;;;;;5074672;28;20448;-63
2022/01/01 10:05:59;;;;;;;4.53;3.87;;;12.70;99.90;;;;;;5074261;28;20494;-63
2022/01/01 10:08:26;;;;;;;3.77;3.40;;;12.70;99.90;;;;;;5073507;28;20844;-63
2022/01/01 10:10:53;;;;;;;3.63;3.30;;;12.70;99.90;;;;;;5074406;28;20475;-63
2022/01/01 10:13:27;;;;;;;3.93;3.47;;;12.80;99.90;;;;;;5074154;28;20870;-63
2022/01/01 10:15:56;;;;;;;4.53;4.10;;;12.90;99.90;;;;;;5074138;28;20923;-63
2022/01/01 10:18:28;;;;;;;6.23;4.30;;;13.10;99.90;;;;;;5074136;28;20462;-63
2022/01/01 10:21:05;;;;;;;4.13;3.83;;;13.20;99.90;;;;;;5074168;28;20478;-63
2022/01/01 10:23:34;;;;;;;3.57;3.27;;;13.40;99.90;;;;;;5074479;28;20429;-62
2022/01/01 10:28:57;;;;;;;5.27;4.13;;;13.60;99.90;;;;;;5073393;28;20412;-62
2022/01/01 10:31:24;;;;;;;5.20;4.13;;;13.50;99.90;;;;;;5073789;28;20559;-63
2022/01/01 10:33:51;;;;;;;6.00;3.80;;;13.50;99.90;;;;;;5073939;28;20444;-63
2022/01/01 10:36:23;;;;;;;4.80;3.70;;;13.60;99.90;;;;;;5074100;28;20472;-63
2022/01/01 10:38:51;;;;;;;3.70;3.33;;;13.60;99.90;;;;;;5073812;28;20435;-63
2022/01/01 10:41:18;;;;;;;5.73;4.47;;;;;;;;;;5073753;28;20476;-63
2022/01/01 10:43:46;;;;;;;6.67;4.50;;;14.20;99.90;;;;;;5073834;28;20456;-63
2022/01/01 10:46:19;;;;;;;4.53;4.13;;;15.50;99.90;;;;;;5073657;28;20484;-63
2022/01/01 10:48:57;;;;;;;4.30;3.90;;;17.00;99.90;;;;;;5073687;28;20475;-63
2022/01/01 10:51:36;;;;;;;4.60;3.40;;;18.10;99.90;;;;;;5073635;28;20610;-63
2022/01/01 10:54:05;;;;;;;5.40;4.90;;;19.10;99.90;;;;;;5073591;28;20424;-63
2022/01/01 10:56:38;;;;;;;6.03;5.43;;;20.00;99.90;;;;;;5073745;28;20840;-63
2022/01/01 10:59:09;;;;;;;7.50;6.23;;;20.60;99.30;;;;;;5073584;28;20904;-63
2022/01/01 11:01:44;;;;;;;8.07;7.27;;;20.50;98.20;;;;;;5073321;28;20551;-63
2022/01/01 11:04:11;;;;;;;8.60;7.40;;;18.90;98.10;;;;;;5073294;28;20432;-62
2022/01/01 11:06:41;;;;;;;6.90;6.20;;;18.10;99.30;;;;;;5073447;28;20484;-63
2022/01/01 11:09:13;;;;;;;8.63;6.77;;;18.90;99.90;;;;;;5073595;28;20451;-63
2022/01/01 11:11:40;;;;;;;6.30;5.70;;;19.00;98.70;;;;;;5073096;28;20468;-62
2022/01/01 11:14:09;;;;;;;8.40;6.50;;;18.40;98.90;;;;;;5072994;28;20502;-62
2022/01/01 11:16:38;;;;;;;6.77;6.10;;;17.80;99.20;;;;;;5073378;28;20444;-62
2022/01/01 11:19:05;;;;;;;6.70;6.00;;;17.80;99.50;;;;;;5073442;28;20811;-62
2022/01/01 11:21:33;;;;;;;6.87;5.83;;;18.40;99.80;;;;;;5073114;28;20475;-62
2022/01/01 11:24:02;;;;;;;9.33;6.60;;;18.90;98.80;;;;;;5073375;28;20448;-62
2022/01/01 11:26:30;;;;;;;8.57;6.90;;;19.10;99.20;;;;;;5073231;28;20488;-62
2022/01/01 11:28:57;;;;;;;7.30;6.53;;;18.70;98.40;;;;;;5073307;28;20542;-62
2022/01/01 11:31:25;;;;;;;7.10;6.10;;;18.60;98.80;;;;;;5073146;28;20579;-62
2022/01/01 11:34:00;;;;;;;7.83;7.10;;;18.50;99.30;;;;;;5073336;28;20448;-62
2022/01/01 11:36:31;;;;;;;9.50;7.60;;;19.20;98.80;;;;;;5073044;28;20455;-63
2022/01/01 11:39:03;;;;;;;8.60;6.90;;;19.50;98.40;;;;;;5074433;28;20451;-62
2022/01/01 11:41:40;;;;;;;7.97;6.93;;;19.20;98.10;;;;;;5077243;28;20554;-62
2022/01/01 11:44:29;;;;;;;7.57;6.77;;;19.50;98.80;;;;;;5076993;28;20435;-62
2022/01/01 11:46:58;;;;;;;9.97;6.73;;;19.80;98.20;;;;;;5077182;28;20471;-62
2022/01/01 11:49:30;;;;;;;8.17;6.83;;;19.00;98.30;;;;;;5077467;28;20445;-62
2022/01/01 11:51:58;;;;;;;8.33;7.37;;;18.80;98.80;;;;;;5076976;28;20885;-62
2022/01/01 11:54:27;;;;;;;7.50;6.80;;;18.60;99.20;;;;;;5076698;28;20455;-62
2022/01/01 11:57:10;;;;;;;10.40;7.20;;;18.40;99.60;;;;;;5076997;28;20444;-62
2022/01/01 11:59:46;;;;;;;9.67;8.20;;;18.00;99.90;;;;;;5076958;28;20519;-62
2022/01/01 12:02:49;;;;;;;8.43;7.67;;;17.30;99.90;;;;;;5077209;28;20428;-62
2022/01/01 12:05:22;;;;;;;10.67;8.73;;;16.90;99.90;;;;;;5076599;28;20509;-62
2022/01/01 12:07:54;;;;;;;12.07;8.83;;;16.40;99.90;;;;;;5076909;28;20435;-62
2022/01/01 12:10:30;;;;;;;10.33;9.07;;;16.00;99.90;;;;;;5076294;28;21022;-62
2022/01/01 12:13:01;;;;;;;9.23;8.23;;;15.70;99.90;;;;;;5076049;28;21008;-62
2022/01/01 12:15:32;;;;;;;11.07;8.47;;;15.60;99.90;;;;;;5076542;28;20434;-62
2022/01/01 12:18:02;;;;;;;9.53;7.70;;;15.80;99.90;;;;;;5076614;28;20431;-62
2022/01/01 12:20:31;;;;;;;7.80;7.00;;;16.00;99.90;;;;;;5076454;28;20470;-62
2022/01/01 12:22:59;;;;;;;10.80;7.70;;;16.00;99.90;;;;;;5076402;28;20447;-62
2022/01/01 12:25:30;;;;;;;7.80;7.07;;;16.00;99.90;;;;;;5076173;28;20455;-62
2022/01/01 12:28:01;;;;;;;11.33;8.90;;;15.80;99.90;;;;;;5076202;28;21002;-62
2022/01/01 12:30:34;;;;;;;8.83;7.93;;;15.50;99.90;;;;;;5076210;28;20475;-62
2022/01/01 12:33:02;;;;;;;11.70;9.20;;;15.30;99.90;;;;;;5075931;28;21002;-62
2022/01/01 12:35:44;;;;;;;9.30;7.87;;;15.10;99.90;;;;;;5075984;28;20806;-63
2022/01/01 12:38:12;;;;;;;9.37;8.40;;;15.20;99.90;;;;;;5076337;28;20459;-62
2022/01/01 12:41:08;;;;;;;14.30;9.07;;;15.30;99.90;;;;;;5076050;28;20555;-62
2022/01/01 12:43:47;;;;;;;9.70;8.70;;;15.20;99.90;;;;;;5074320;28;20533;-62
2022/01/01 12:46:16;;;;;;;10.77;8.60;;;15.10;99.90;;;;;;5076338;28;20547;-62
2022/01/01 12:48:43;;;;;;;11.03;8.83;;;15.10;99.90;;;;;;5075643;28;20923;-63
2022/01/01 12:51:12;;;;;;;12.90;9.23;;;14.90;99.90;;;;;;5074395;28;20455;-62